Time;durP1;ratioP1;P1;durP2;ratioP2;P2;SDS_P1;SDS_P2;PMS_P1;PMS_P2;Temp;Humidity;BMP_temperature;BMP_pressure;BME280_temperature;BME280_humidity;BME280_pressure;Samples;Min_cycle;Max_cycle;Signal;HPM_P1;HPM_P2
2022/04/12 00:02:00;;;;;;;8.50;5.90;;;;;;;-143.37;100.00;62585.38;5032837;28;20490;-76
2022/04/12 00:04:35;;;;;;;7.90;6.17;;;;;;;-143.37;100.00;62585.38;5029480;28;20937;-76
2022/04/12 00:07:11;;;;;;;9.70;7.17;;;;;;;-143.37;100.00;62585.38;5031971;28;20435;-76
2022/04/12 00:09:47;;;;;;;8.60;6.70;;;;;;;-143.37;100.00;62585.38;5029833;28;20431;-76
2022/04/12 00:12:23;;;;;;;9.20;6.73;;;;;;;-143.37;100.00;62585.38;5017653;28;20553;-77
2022/04/12 00:15:01;;;;;;;7.00;6.17;;;;;;;-143.37;100.00;62585.38;5016805;28;20530;-76
2022/04/12 00:20:34;;;;;;;6.97;6.27;;;;;;;-143.37;100.00;62585.38;5053430;28;20466;-76
2022/04/12 00:23:11;;;;;;;8.07;6.17;;;;;;;-143.37;100.00;62585.38;5051067;28;20541;-76
2022/04/12 00:25:46;;;;;;;9.50;7.30;;;;;;;-143.37;100.00;62585.38;5052026;28;20516;-76
2022/04/12 00:28:22;;;;;;;7.60;6.00;;;;;;;-143.37;100.00;62585.38;5052998;28;20453;-76
2022/04/12 00:31:04;;;;;;;8.43;6.63;;;;;;;-143.37;100.00;62585.38;5037045;28;20545;-76
2022/04/12 00:33:39;;;;;;;8.87;6.50;;;;;;;-143.37;100.00;62585.38;5067086;28;20544;-76
2022/04/12 00:36:15;;;;;;;8.13;6.00;;;;;;;-143.37;100.00;62585.38;5052556;28;20548;-76
2022/04/12 00:38:50;;;;;;;7.60;6.23;;;;;;;-143.37;100.00;62585.38;5051862;28;20450;-76
2022/04/12 00:41:35;;;;;;;7.40;6.23;;;;;;;-143.37;100.00;62585.38;5066374;28;20457;-76
2022/04/12 00:44:10;;;;;;;7.83;6.67;;;;;;;-143.37;100.00;62585.38;5068187;28;20438;-76
2022/04/12 00:46:47;;;;;;;10.30;7.03;;;;;;;-143.37;100.00;62585.38;5066226;28;20943;-76
2022/04/12 00:49:24;;;;;;;8.70;6.23;;;;;;;-143.37;100.00;62585.38;5069388;28;20936;-76
2022/04/12 00:52:00;;;;;;;8.27;6.17;;;;;;;-143.37;100.00;62585.38;5070380;28;20920;-76
2022/04/12 00:54:37;;;;;;;9.37;6.23;;;;;;;-143.37;100.00;62585.38;5054015;28;20532;-76
2022/04/12 00:57:13;;;;;;;7.97;7.03;;;;;;;-143.37;100.00;62585.38;5067818;28;20445;-76
2022/04/12 00:59:51;;;;;;;8.70;5.93;;;;;;;-143.37;100.00;62585.38;5068508;28;20806;-76
2022/04/12 01:02:28;;;;;;;7.10;6.03;;;;;;;-143.37;100.00;62585.38;5054258;28;21017;-76
2022/04/12 01:05:05;;;;;;;7.30;5.97;;;;;;;-143.37;100.00;62585.38;5049762;28;20450;-76
2022/04/12 01:07:41;;;;;;;7.00;6.20;;;;;;;-143.37;100.00;62585.38;5067182;28;20453;-76
2022/04/12 01:10:16;;;;;;;8.40;5.40;;;;;;;-143.37;100.00;62585.38;5065721;28;20463;-76
2022/04/12 01:12:52;;;;;;;8.20;7.13;;;;;;;-143.37;100.00;62585.38;5036035;28;20454;-76
2022/04/12 01:15:29;;;;;;;7.03;5.60;;;;;;;-143.37;100.00;62585.38;5052293;28;20929;-76
2022/04/12 01:18:06;;;;;;;6.83;5.87;;;;;;;-143.37;100.00;62585.38;5033649;28;20465;-76
2022/04/12 01:20:41;;;;;;;7.90;5.90;;;;;;;-143.37;100.00;62585.38;5078227;28;20801;-76
2022/04/12 01:23:21;;;;;;;8.20;5.83;;;;;;;-143.37;100.00;62585.38;5068632;28;20784;-76
2022/04/12 01:26:02;;;;;;;7.20;5.80;;;;;;;-143.37;100.00;62585.38;5068710;28;20445;-76
2022/04/12 01:28:38;;;;;;;7.30;5.63;;;;;;;-143.37;100.00;62585.38;5062849;28;20450;-76
2022/04/12 01:31:13;;;;;;;7.90;6.97;;;;;;;-143.37;100.00;62585.38;5051215;28;20426;-76
2022/04/12 01:33:49;;;;;;;7.63;6.83;;;;;;;-143.37;100.00;62585.38;5051872;28;20457;-76
2022/04/12 01:36:24;;;;;;;7.40;6.70;;;;;;;-143.37;100.00;62585.38;5067813;28;20477;-76
2022/04/12 01:39:02;;;;;;;9.70;6.40;;;;;;;-143.37;100.00;62585.38;5054053;28;20453;-76
2022/04/12 01:41:39;;;;;;;8.97;6.77;;;;;;;-143.37;100.00;62585.38;5070163;28;20849;-76
2022/04/12 01:44:14;;;;;;;7.23;6.33;;;;;;;-143.37;100.00;62585.38;5035339;28;20495;-76
2022/04/12 01:46:50;;;;;;;9.30;7.70;;;;;;;-143.37;100.00;62585.38;5046629;28;20515;-76
2022/04/12 01:49:26;;;;;;;8.20;6.97;;;;;;;-143.37;100.00;62585.38;5051988;28;20445;-76
2022/04/12 01:52:02;;;;;;;8.13;7.30;;;;;;;-143.37;100.00;62585.38;5051304;28;20461;-76
2022/04/12 01:54:48;;;;;;;9.73;7.47;;;;;;;-143.37;100.00;62585.38;5036618;28;20441;-76
2022/04/12 01:57:25;;;;;;;10.17;7.07;;;;;;;-143.37;100.00;62585.38;5037846;28;20442;-76
2022/04/12 02:00:01;;;;;;;8.60;6.80;;;;;;;-143.37;100.00;62585.38;5036412;28;21804;-76
2022/04/12 02:02:36;;;;;;;9.27;7.17;;;;;;;-143.37;100.00;62585.38;5045613;28;20437;-76
2022/04/12 02:05:12;;;;;;;7.60;6.40;;;;;;;-143.37;100.00;62585.38;5048304;28;20784;-76
2022/04/12 02:07:48;;;;;;;8.03;6.87;;;;;;;-143.37;100.00;62585.38;5050711;28;20453;-76
2022/04/12 02:10:23;;;;;;;7.87;6.73;;;;;;;-143.37;100.00;62585.38;5052417;28;20453;-76
2022/04/12 02:13:01;;;;;;;7.13;6.30;;;;;;;-143.37;100.00;62585.38;5052003;28;20446;-76
2022/04/12 02:15:38;;;;;;;7.47;6.30;;;;;;;-143.37;100.00;62585.38;5066977;28;20430;-76
2022/04/12 02:18:13;;;;;;;8.87;6.27;;;;;;;-143.37;100.00;62585.38;5028294;28;20470;-76
2022/04/12 02:20:49;;;;;;;7.77;6.67;;;;;;;-143.37;100.00;62585.38;5045334;28;20453;-76
2022/04/12 02:23:25;;;;;;;8.40;7.00;;;;;;;-143.37;100.00;62585.38;5051856;28;20787;-76
2022/04/12 02:26:01;;;;;;;8.30;6.40;;;;;;;-143.37;100.00;62585.38;5051488;28;20948;-76
2022/04/12 02:28:38;;;;;;;8.03;6.60;;;;;;;-143.37;100.00;62585.38;5029370;28;20457;-76
2022/04/12 02:31:14;;;;;;;9.23;6.70;;;;;;;-143.37;100.00;62585.38;5049130;28;20438;-76
2022/04/12 02:33:50;;;;;;;8.70;7.43;;;;;;;-143.37;100.00;62585.38;5054178;28;20445;-75
2022/04/12 02:36:27;;;;;;;7.50;6.53;;;;;;;-143.37;100.00;62585.38;5070426;28;20433;-75
2022/04/12 02:39:03;;;;;;;8.63;6.63;;;;;;;-143.37;100.00;62585.38;5059222;28;20843;-75
2022/04/12 02:41:38;;;;;;;7.53;6.77;;;;;;;-143.37;100.00;62585.38;5056622;28;20458;-75
2022/04/12 02:44:15;;;;;;;10.97;6.70;;;;;;;-143.37;100.00;62585.38;5054726;28;20449;-75
2022/04/12 02:46:51;;;;;;;8.13;6.80;;;;;;;-143.37;100.00;62585.38;5069013;28;20449;-75
2022/04/12 02:49:27;;;;;;;9.10;7.33;;;;;;;-143.37;100.00;62585.38;5055421;28;20446;-75
2022/04/12 02:52:02;;;;;;;8.43;7.37;;;;;;;-143.37;100.00;62585.38;5053975;28;20477;-75
2022/04/12 02:54:38;;;;;;;9.00;6.70;;;;;;;-143.37;100.00;62585.38;5052585;28;21094;-75
2022/04/12 02:57:14;;;;;;;7.47;6.53;;;;;;;-143.37;100.00;62585.38;5041286;28;20433;-75
2022/04/12 02:59:52;;;;;;;8.13;6.90;;;;;;;-143.37;100.00;62585.38;5054856;28;20933;-75
2022/04/12 03:02:27;;;;;;;7.83;6.97;;;;;;;-143.37;100.00;62585.38;5053344;28;20438;-75
2022/04/12 03:05:03;;;;;;;9.23;6.40;;;;;;;-143.37;100.00;62585.38;5040183;28;20438;-75
2022/04/12 03:07:38;;;;;;;8.43;7.53;;;;;;;-143.37;100.00;62585.38;5038967;28;20446;-75
2022/04/12 03:10:14;;;;;;;7.57;6.43;;;;;;;-143.37;100.00;62585.38;5053823;28;20782;-75
2022/04/12 03:12:50;;;;;;;6.50;5.90;;;;;;;-143.37;100.00;62585.38;5038768;28;20477;-75
2022/04/12 03:15:28;;;;;;;6.60;5.90;;;;;;;-143.37;100.00;62585.38;5039204;28;20541;-75
2022/04/12 03:18:04;;;;;;;6.97;6.27;;;;;;;-143.37;100.00;62585.38;5052696;28;20478;-75
2022/04/12 03:20:40;;;;;;;7.63;6.70;;;;;;;-143.37;100.00;62585.38;5048961;28;20453;-75
2022/04/12 03:23:15;;;;;;;8.33;6.50;;;;;;;-143.37;100.00;62585.38;5048632;28;20453;-75
2022/04/12 03:25:51;;;;;;;7.80;5.90;;;;;;;-143.37;100.00;62585.38;5071804;28;20528;-75
2022/04/12 03:28:27;;;;;;;8.07;5.93;;;;;;;-143.37;100.00;62585.38;5051206;28;20457;-75
2022/04/12 03:31:04;;;;;;;10.57;7.40;;;;;;;-143.37;100.00;62585.38;5071612;28;20430;-75
2022/04/12 03:33:39;;;;;;;8.30;6.27;;;;;;;-143.37;100.00;62585.38;5071317;28;20445;-75
2022/04/12 03:36:16;;;;;;;8.70;7.10;;;;;;;-143.37;100.00;62585.38;5050335;28;20782;-75
2022/04/12 03:38:52;;;;;;;8.07;7.20;;;;;;;-143.37;100.00;62585.38;5066903;28;20446;-75
2022/04/12 03:41:28;;;;;;;7.67;6.60;;;;;;;-143.37;100.00;62585.38;5054030;28;21002;-75
2022/04/12 03:44:04;;;;;;;8.40;6.40;;;;;;;-143.37;100.00;62585.38;5053012;28;20446;-75
2022/04/12 03:46:42;;;;;;;8.93;7.83;;;;;;;-143.37;100.00;62585.38;5051293;28;20536;-75
2022/04/12 03:49:17;;;;;;;8.00;6.87;;;;;;;-143.37;100.00;62585.38;5052590;28;20500;-75
2022/04/12 03:51:53;;;;;;;8.03;6.60;;;;;;;-143.37;100.00;62585.38;5069079;28;20435;-75
2022/04/12 03:54:29;;;;;;;7.37;6.50;;;;;;;-143.37;100.00;62585.38;5053684;28;20442;-76
2022/04/12 03:57:05;;;;;;;9.53;6.77;;;;;;;-143.37;100.00;62585.38;5070451;28;20445;-75
2022/04/12 03:59:41;;;;;;;8.70;6.63;;;;;;;-143.37;100.00;62585.38;5071746;28;20433;-75
2022/04/12 04:02:18;;;;;;;10.00;7.80;;;;;;;-143.37;100.00;62585.38;5052576;28;20573;-75
2022/04/12 04:04:53;;;;;;;7.87;7.07;;;;;;;-143.37;100.00;62585.38;5052801;28;20499;-75
2022/04/12 04:07:29;;;;;;;8.10;6.90;;;;;;;-143.37;100.00;62585.38;5038568;28;20774;-75
2022/04/12 04:10:05;;;;;;;7.90;7.00;;;;;;;-143.37;100.00;62585.38;5052553;28;20445;-75
2022/04/12 04:12:42;;;;;;;13.20;8.60;;;;;;;-143.37;100.00;62585.38;5063527;28;20443;-75
2022/04/12 04:15:18;;;;;;;15.73;7.60;;;;;;;-143.37;100.00;62585.38;5053320;28;20438;-74
2022/04/12 04:17:55;;;;;;;9.10;6.90;;;;;;;-143.37;100.00;62585.38;5069818;28;20890;-75
2022/04/12 04:20:30;;;;;;;8.37;7.50;;;;;;;-143.37;100.00;62585.38;5085054;28;20437;-75
2022/04/12 04:23:06;;;;;;;10.10;8.30;;;;;;;-143.37;100.00;62585.38;5053833;28;20452;-75
2022/04/12 04:25:42;;;;;;;9.73;7.50;;;;;;;-143.37;100.00;62585.38;5038366;28;20446;-75
2022/04/12 04:28:21;;;;;;;9.07;8.13;;;;;;;-143.37;100.00;62585.38;5065474;28;20446;-75
2022/04/12 04:30:57;;;;;;;8.10;6.90;;;;;;;-143.37;100.00;62585.38;5037552;28;21405;-75
2022/04/12 04:33:35;;;;;;;7.70;6.90;;;;;;;-143.37;100.00;62585.38;5062711;28;20816;-75
2022/04/12 04:36:10;;;;;;;9.20;7.13;;;;;;;-143.37;100.00;62585.38;5045699;28;20503;-75
2022/04/12 04:38:49;;;;;;;8.33;7.43;;;;;;;-143.37;100.00;62585.38;5048592;28;20549;-75
2022/04/12 04:41:24;;;;;;;10.53;7.50;;;;;;;-143.37;100.00;62585.38;5053265;28;20450;-75
2022/04/12 04:44:01;;;;;;;10.53;8.23;;;;;;;-143.37;100.00;62585.38;5051844;28;20433;-75
2022/04/12 04:46:37;;;;;;;10.20;8.13;;;;;;;-143.37;100.00;62585.38;5050823;28;20437;-75
2022/04/12 04:49:14;;;;;;;9.97;8.20;;;;;;;-143.37;100.00;62585.38;5052102;28;20842;-75
2022/04/12 04:51:50;;;;;;;8.03;7.10;;;;;;;-143.37;100.00;62585.38;5050764;28;20422;-76
2022/04/12 04:54:25;;;;;;;9.60;7.47;;;;;;;-143.37;100.00;62585.38;5071779;28;20549;-75
2022/04/12 04:57:01;;;;;;;8.53;7.30;;;;;;;-143.37;100.00;62585.38;5037908;28;20450;-75
2022/04/12 04:59:37;;;;;;;10.30;8.80;;;;;;;-143.37;100.00;62585.38;5049839;28;20931;-75
2022/04/12 05:02:12;;;;;;;10.03;7.37;;;;;;;-143.37;100.00;62585.38;5050599;28;20572;-76
2022/04/12 05:04:49;;;;;;;11.63;7.27;;;;;;;-143.37;100.00;62585.38;5049848;28;20446;-75
2022/04/12 05:07:25;;;;;;;9.90;8.30;;;;;;;-143.37;100.00;62585.38;5069312;28;20454;-75
2022/04/12 05:10:01;;;;;;;8.33;7.53;;;;;;;-143.37;100.00;62585.38;5050785;28;20544;-76
2022/04/12 05:12:37;;;;;;;12.47;8.00;;;;;;;-143.37;100.00;62585.38;5053063;28;20536;-76
2022/04/12 05:15:13;;;;;;;9.43;7.50;;;;;;;-143.37;100.00;62585.38;5052194;28;20955;-76
2022/04/12 05:17:50;;;;;;;9.40;7.50;;;;;;;-143.37;100.00;62585.38;5051209;28;20892;-76
2022/04/12 05:20:27;;;;;;;9.27;7.70;;;;;;;-143.37;100.00;62585.38;5050528;28;20513;-77
2022/04/12 05:23:03;;;;;;;8.43;7.60;;;;;;;-143.37;100.00;62585.38;5037327;28;20438;-77
2022/04/12 05:25:38;;;;;;;9.03;7.30;;;;;;;-143.37;100.00;62585.38;5038888;28;20432;-76
2022/04/12 05:28:14;;;;;;;9.57;8.37;;;;;;;-143.37;100.00;62585.38;5049448;28;20444;-76
2022/04/12 05:30:50;;;;;;;10.20;8.37;;;;;;;-143.37;100.00;62585.38;5034802;28;20495;-76
2022/04/12 05:33:26;;;;;;;9.30;7.80;;;;;;;-143.37;100.00;62585.38;5051809;28;20468;-76
2022/04/12 05:36:03;;;;;;;9.73;8.20;;;;;;;-143.37;100.00;62585.38;5051641;28;20920;-76
2022/04/12 05:38:39;;;;;;;10.30;8.20;;;;;;;-143.37;100.00;62585.38;5037032;28;20928;-77
2022/04/12 05:41:14;;;;;;;8.87;7.97;;;;;;;-143.37;100.00;62585.38;5034385;28;20465;-76
2022/04/12 05:43:50;;;;;;;8.13;7.33;;;;;;;-143.37;100.00;62585.38;5046049;28;20445;-77
2022/04/12 05:46:26;;;;;;;15.13;8.60;;;;;;;-143.37;100.00;62585.38;5036423;28;20452;-76
2022/04/12 05:49:02;;;;;;;9.90;8.20;;;;;;;-143.37;100.00;62585.38;5030541;28;20458;-76
2022/04/12 05:51:39;;;;;;;9.07;8.17;;;;;;;-143.37;100.00;62585.38;5044071;28;20426;-76
2022/04/12 05:54:14;;;;;;;9.10;7.47;;;;;;;-143.37;100.00;62585.38;5050430;28;20536;-76
2022/04/12 05:56:50;;;;;;;9.60;7.60;;;;;;;-143.37;100.00;62585.38;5063464;28;20522;-76
2022/04/12 05:59:25;;;;;;;8.17;7.37;;;;;;;-143.37;100.00;62585.38;5062125;28;20528;-76
2022/04/12 06:02:01;;;;;;;8.53;7.57;;;;;;;-143.37;100.00;62585.38;5048829;28;20461;-76
2022/04/12 06:04:36;;;;;;;8.87;7.97;;;;;;;-143.37;100.00;62585.38;5048039;28;20528;-73
2022/04/12 06:07:13;;;;;;;8.30;7.40;;;;;;;-143.37;100.00;62585.38;5034211;28;20460;-76
2022/04/12 06:09:49;;;;;;;9.70;8.00;;;;;;;-143.37;100.00;62585.38;5052878;28;20433;-76
2022/04/12 06:12:24;;;;;;;9.53;8.53;;;;;;;-143.37;100.00;62585.38;5055845;28;20514;-75
2022/04/12 06:15:00;;;;;;;10.23;8.13;;;;;;;-143.37;100.00;62585.38;5055436;28;20441;-76
2022/04/12 06:17:37;;;;;;;9.93;8.70;;;;;;;-143.37;100.00;62585.38;5054719;28;20472;-76
2022/04/12 06:20:14;;;;;;;11.00;8.70;;;;;;;-143.37;100.00;62585.38;5038924;28;20430;-76
2022/04/12 06:22:51;;;;;;;11.47;8.43;;;;;;;-143.37;100.00;62585.38;5038211;28;20947;-76
2022/04/12 06:25:26;;;;;;;8.17;7.33;;;;;;;-143.37;100.00;62585.38;5052408;28;20440;-76
2022/04/12 06:28:02;;;;;;;9.27;7.63;;;;;;;-143.37;100.00;62585.38;5038316;28;20481;-76
2022/04/12 06:30:37;;;;;;;8.33;7.50;;;;;;;-143.37;100.00;62585.38;5033827;28;20449;-76
2022/04/12 06:33:13;;;;;;;7.77;7.07;;;;;;;-143.37;100.00;62585.38;5038470;28;20453;-76
2022/04/12 06:35:49;;;;;;;7.97;7.17;;;;;;;-143.37;100.00;62585.38;5051272;28;20800;-76
2022/04/12 06:38:26;;;;;;;9.30;8.10;;;;;;;-143.37;100.00;62585.38;5054199;28;20871;-76
2022/04/12 06:41:03;;;;;;;10.20;8.10;;;;;;;-143.37;100.00;62585.38;5037724;28;20473;-76
2022/04/12 06:43:39;;;;;;;8.53;7.63;;;;;;;-143.37;100.00;62585.38;5057018;28;20445;-76
2022/04/12 06:46:15;;;;;;;7.97;7.20;;;;;;;-143.37;100.00;62585.38;5063653;28;20948;-76
2022/04/12 06:48:50;;;;;;;7.27;6.17;;;;;;;-143.37;100.00;62585.38;5037988;28;20447;-76
2022/04/12 06:51:26;;;;;;;10.50;8.60;;;;;;;-143.37;100.00;62585.38;5035134;28;20453;-76
2022/04/12 06:54:02;;;;;;;9.07;8.17;;;;;;;-143.37;100.00;62585.38;5067680;28;20483;-76
2022/04/12 06:56:38;;;;;;;8.03;7.23;;;;;;;-143.37;100.00;62585.38;5049121;28;20449;-76
2022/04/12 06:59:15;;;;;;;8.40;7.50;;;;;;;-143.37;100.00;62585.38;5053494;28;20429;-76
2022/04/12 07:01:50;;;;;;;8.93;7.67;;;;;;;-143.37;100.00;62585.38;5070050;28;20457;-77
2022/04/12 07:04:27;;;;;;;7.93;7.23;;;;;;;-143.37;100.00;62585.38;5039012;28;20453;-82
2022/04/12 07:07:02;;;;;;;9.00;8.10;;;;;;;-143.37;100.00;62585.38;5051867;28;20442;-74
2022/04/12 07:09:39;;;;;;;9.17;7.90;;;;;;;-143.37;100.00;62585.38;5049563;28;20827;-74
2022/04/12 07:12:15;;;;;;;8.80;7.70;;;;;;;-143.37;100.00;62585.38;5039919;28;20445;-75
2022/04/12 07:14:50;;;;;;;7.83;7.03;;;;;;;-143.37;100.00;62585.38;5052289;28;20799;-75
2022/04/12 07:17:26;;;;;;;8.10;7.30;;;;;;;-143.37;100.00;62585.38;5048028;28;20452;-75
2022/04/12 07:20:02;;;;;;;8.57;7.63;;;;;;;-143.37;100.00;62585.38;5017172;28;20450;-75
2022/04/12 07:22:37;;;;;;;8.50;7.70;;;;;;;-143.37;100.00;62585.38;5017946;28;20821;-75
2022/04/12 07:25:14;;;;;;;7.67;6.87;;;;;;;-143.37;100.00;62585.38;5031869;28;20431;-75
2022/04/12 07:27:50;;;;;;;7.90;7.20;;;;;;;-143.37;100.00;62585.38;5015448;28;20769;-75
2022/04/12 07:30:25;;;;;;;7.83;6.93;;;;;;;-143.37;100.00;62585.38;5017621;28;20534;-75
2022/04/12 07:33:01;;;;;;;7.87;7.07;;;;;;;-143.37;100.00;62585.38;5033450;28;20853;-75
2022/04/12 07:35:36;;;;;;;7.30;6.70;;;;;;;-143.37;100.00;62585.38;5032614;28;20442;-75
2022/04/12 07:38:12;;;;;;;8.30;7.50;;;;;;;-143.37;100.00;62585.38;5033478;28;20441;-75
2022/04/12 07:40:49;;;;;;;8.60;7.70;;;;;;;-143.37;100.00;62585.38;5032290;28;20435;-75
2022/04/12 07:43:25;;;;;;;8.20;7.10;;;;;;;-143.37;100.00;62585.38;5018463;28;20908;-76
2022/04/12 07:46:01;;;;;;;8.33;7.53;;;;;;;-143.37;100.00;62585.38;5033428;28;20431;-76
2022/04/12 07:48:36;;;;;;;9.60;8.10;;;;;;;-143.37;100.00;62585.38;5015476;28;20483;-77
2022/04/12 07:51:12;;;;;;;8.40;7.60;;;;;;;-143.37;100.00;62585.38;5029586;28;20530;-77
2022/04/12 07:53:48;;;;;;;9.57;7.90;;;;;;;-143.37;100.00;62585.38;5031995;28;20458;-77
2022/04/12 07:56:25;;;;;;;9.03;8.00;;;;;;;-143.37;100.00;62585.38;5032194;28;20442;-77
2022/04/12 07:59:00;;;;;;;8.57;7.70;;;;;;;-143.37;100.00;62585.38;5048337;28;20486;-77
2022/04/12 08:01:36;;;;;;;9.17;8.33;;;;;;;-143.37;100.00;62585.38;5029279;28;20537;-77
2022/04/12 08:04:11;;;;;;;7.83;7.03;;;;;;;-143.37;100.00;62585.38;5012231;28;20919;-77
2022/04/12 08:06:47;;;;;;;8.60;7.80;;;;;;;-143.37;100.00;62585.38;5032138;28;20948;-77
2022/04/12 08:09:23;;;;;;;10.10;7.73;;;;;;;-143.37;100.00;62585.38;5017238;28;20481;-77
2022/04/12 08:12:01;;;;;;;8.13;7.20;;;;;;;-143.37;100.00;62585.38;5033716;28;20446;-75
2022/04/12 08:14:36;;;;;;;8.40;7.30;;;;;;;-143.37;100.00;62585.38;5042336;28;20533;-77
2022/04/12 08:17:12;;;;;;;7.23;6.53;;;;;;;-143.37;100.00;62585.38;5032652;28;20438;-78
2022/04/12 08:19:48;;;;;;;7.13;6.43;;;;;;;-143.37;100.00;62585.38;5051534;28;20584;-78
2022/04/12 08:22:23;;;;;;;7.20;6.47;;;;;;;-143.37;100.00;62585.38;5035839;28;20474;-77
2022/04/12 08:25:00;;;;;;;6.80;6.10;;;;;;;-143.37;100.00;62585.38;5051858;28;20498;-77
2022/04/12 08:27:37;;;;;;;7.60;5.77;;;;;;;-143.37;100.00;62585.38;5063722;28;20434;-78
2022/04/12 08:30:13;;;;;;;8.77;6.70;;;;;;;-143.37;100.00;62585.38;5047803;28;20849;-78
2022/04/12 08:32:49;;;;;;;7.93;6.53;;;;;;;-143.37;100.00;62585.38;5049315;28;22308;-78
2022/04/12 08:35:24;;;;;;;7.80;6.27;;;;;;;-143.37;100.00;62585.38;5050274;28;20470;-77
2022/04/12 08:38:00;;;;;;;7.10;6.40;;;;;;;-143.37;100.00;62585.38;5051959;28;20482;-75
2022/04/12 08:40:36;;;;;;;8.47;6.53;;;;;;;-143.37;100.00;62585.38;5048913;28;20458;-77
2022/04/12 08:43:15;;;;;;;11.43;6.43;;;;;;;-143.37;100.00;62585.38;5047466;28;20504;-76
2022/04/12 08:45:52;;;;;;;9.73;6.33;;;;;;;-143.37;100.00;62585.38;5049500;28;20461;-76
2022/04/12 08:48:28;;;;;;;6.73;6.03;;;;;;;-143.37;100.00;62585.38;5048421;28;20552;-76
2022/04/12 08:51:04;;;;;;;8.43;7.53;;;;;;;-143.37;100.00;62585.38;5048340;28;20429;-76
2022/04/12 08:53:39;;;;;;;13.80;6.73;;;;;;;-143.37;100.00;62585.38;5046157;28;20450;-76
2022/04/12 08:56:15;;;;;;;6.37;5.77;;;;;;;-143.37;100.00;62585.38;5035117;28;20450;-76
2022/04/12 08:58:53;;;;;;;7.40;6.70;;;;;;;-143.37;100.00;62585.38;5034848;28;20858;-76
2022/04/12 09:01:29;;;;;;;6.33;5.50;;;;;;;-143.37;100.00;62585.38;5036922;28;20437;-76
2022/04/12 09:04:05;;;;;;;6.60;5.83;;;;;;;-143.37;100.00;62585.38;5050862;28;20876;-76
2022/04/12 09:06:49;;;;;;;5.70;5.20;;;;;;;-143.37;100.00;62585.38;5034184;28;20450;-76
2022/04/12 09:09:26;;;;;;;6.87;4.97;;;;;;;-143.37;100.00;62585.38;5050336;28;20458;-76
2022/04/12 09:12:03;;;;;;;9.83;4.80;;;;;;;-143.37;100.00;62585.38;5035104;28;20449;-76
2022/04/12 09:14:42;;;;;;;7.50;5.23;;;;;;;-143.37;100.00;62585.38;5036235;28;20450;-76
2022/04/12 09:17:21;;;;;;;6.17;4.47;;;;;;;-143.37;100.00;62585.38;5051866;28;20448;-76
2022/04/12 09:19:57;;;;;;;5.37;4.37;;;;;;;-143.37;100.00;62585.38;5029802;28;20435;-76
2022/04/12 09:22:35;;;;;;;5.90;5.23;;;;;;;-143.37;100.00;62585.38;5027249;28;20591;-76
2022/04/12 09:25:13;;;;;;;6.93;4.70;;;;;;;-143.37;100.00;62585.38;5028004;28;20586;-76
2022/04/12 09:27:49;;;;;;;4.63;4.20;;;;;;;-143.37;100.00;62585.38;5042476;28;20442;-76
2022/04/12 09:30:27;;;;;;;4.53;4.13;;;;;;;-143.37;100.00;62585.38;5029128;28;20873;-76
2022/04/12 09:33:02;;;;;;;6.67;5.17;;;;;;;-143.37;100.00;62585.38;5027081;28;20446;-76
2022/04/12 09:35:39;;;;;;;7.37;6.33;;;;;;;-143.37;100.00;62585.38;5016481;28;20430;-76
2022/04/12 09:38:31;;;;;;;5.83;5.23;;;;;;;-143.37;100.00;62585.38;5046667;28;20447;-76
2022/04/12 09:41:15;;;;;;;5.70;5.10;;;;;;;-143.37;100.00;62585.38;5016461;28;20453;-75
2022/04/12 09:43:55;;;;;;;5.40;4.90;;;;;;;-143.37;100.00;62585.38;5021291;28;20979;-76
2022/04/12 09:46:33;;;;;;;5.10;4.60;;;;;;;-143.37;100.00;62585.38;5016615;28;20443;-76
2022/04/12 09:49:09;;;;;;;5.83;5.23;;;;;;;-143.37;100.00;62585.38;5034432;28;20435;-76
2022/04/12 09:51:50;;;;;;;5.50;4.80;;;;;;;-143.37;100.00;62585.38;5019092;28;20427;-76
2022/04/12 09:54:26;;;;;;;6.97;5.20;;;;;;;-143.37;100.00;62585.38;5037243;28;20476;-76
2022/04/12 09:57:03;;;;;;;6.67;6.00;;;;;;;-143.37;100.00;62585.38;5020860;28;20783;-76
2022/04/12 09:59:39;;;;;;;8.33;5.43;;;;;;;-143.37;100.00;62585.38;5032348;28;20443;-76
2022/04/12 10:02:16;;;;;;;5.93;4.80;;;;;;;-143.37;100.00;62585.38;5035657;28;20446;-76
2022/04/12 10:04:53;;;;;;;5.20;4.70;;;;;;;-143.37;100.00;62585.38;5033182;28;20527;-76
2022/04/12 10:07:32;;;;;;;4.80;4.30;;;;;;;-143.37;100.00;62585.38;5033807;28;20443;-76
2022/04/12 10:10:09;;;;;;;5.17;4.73;;;;;;;-143.37;100.00;62585.38;5034927;28;20438;-76
2022/04/12 10:12:47;;;;;;;8.03;5.70;;;;;;;-143.37;100.00;62585.38;5032907;28;20438;-76
2022/04/12 10:15:23;;;;;;;5.13;4.63;;;;;;;-143.37;100.00;62585.38;5019602;28;20442;-76
2022/04/12 10:18:01;;;;;;;5.30;4.40;;;;;;;-143.37;100.00;62585.38;5042141;28;20475;-76
2022/04/12 10:20:37;;;;;;;7.70;4.70;;;;;;;-143.37;100.00;62585.38;5053833;28;20864;-75
2022/04/12 10:23:13;;;;;;;5.37;4.73;;;;;;;-143.37;100.00;62585.38;5057568;28;20462;-76
2022/04/12 10:25:50;;;;;;;6.67;5.20;;;;;;;-143.37;100.00;62585.38;5036506;28;20832;-76
2022/04/12 10:28:28;;;;;;;5.40;4.90;;;;;;;-143.37;100.00;62585.38;5040763;28;20445;-75
2022/04/12 10:31:24;;;;;;;7.57;5.30;;;;;;;-143.37;100.00;62585.38;5055389;28;20437;-76
2022/04/12 10:34:14;;;;;;;5.80;5.30;;;;;;;-143.37;100.00;62585.38;5051963;28;20430;-76
2022/04/12 10:37:07;;;;;;;5.73;4.97;;;;;;;-143.37;100.00;62585.38;5064556;28;20485;-75
2022/04/12 10:39:47;;;;;;;6.03;5.43;;;;;;;-143.37;100.00;62585.38;5053303;28;20450;-76
2022/04/12 10:42:26;;;;;;;4.40;4.00;;;;;;;-143.37;100.00;62585.38;5055782;28;20442;-76
2022/04/12 10:45:03;;;;;;;4.80;3.60;;;;;;;-143.37;100.00;62585.38;5053482;28;21818;-76
2022/04/12 10:47:44;;;;;;;4.00;3.70;;;;;;;-143.37;100.00;62585.38;5048113;28;20453;-76
2022/04/12 10:50:21;;;;;;;3.70;3.20;;;;;;;-143.37;100.00;62585.38;5066305;28;20912;-76
2022/04/12 10:52:56;;;;;;;3.57;3.23;;;;;;;-143.37;100.00;62585.38;5067649;28;20554;-78
2022/04/12 10:55:39;;;;;;;5.10;3.10;;;;;;;-143.37;100.00;62585.38;5065793;28;20434;-76
2022/04/12 10:58:20;;;;;;;3.63;3.30;;;;;;;-143.37;100.00;62585.38;5070283;28;20445;-76
2022/04/12 11:00:56;;;;;;;3.47;3.13;;;;;;;-143.37;100.00;62585.38;5065952;28;20835;-76
2022/04/12 11:03:54;;;;;;;4.17;2.97;;;;;;;-143.37;100.00;62585.38;5039333;28;20802;-76
2022/04/12 11:06:32;;;;;;;3.97;2.90;;;;;;;-143.37;100.00;62585.38;5054462;28;20530;-76
2022/04/12 11:09:10;;;;;;;8.30;3.03;;;;;;;-143.37;100.00;62585.38;5071430;28;20780;-76
2022/04/12 11:11:53;;;;;;;3.53;2.80;;;;;;;-143.37;100.00;62585.38;5036967;28;20524;-76
2022/04/12 11:14:32;;;;;;;6.50;3.43;;;;;;;-143.37;100.00;62585.38;5040471;28;20450;-76
2022/04/12 11:17:09;;;;;;;3.13;2.83;;;;;;;-143.37;100.00;62585.38;5071730;28;20448;-76
2022/04/12 11:19:47;;;;;;;3.73;3.03;;;;;;;-143.37;100.00;62585.38;5067438;28;20462;-76
2022/04/12 11:22:25;;;;;;;9.60;3.30;;;;;;;-143.37;100.00;62585.38;5066126;28;20464;-76
2022/04/12 11:25:14;;;;;;;3.43;3.13;;;;;;;-143.37;100.00;62585.38;5053074;28;20939;-76
2022/04/12 11:27:56;;;;;;;3.40;3.10;;;;;;;-143.37;100.00;62585.38;5054640;28;20438;-76
2022/04/12 11:30:35;;;;;;;3.93;2.87;;;;;;;-143.37;100.00;62585.38;5054341;28;20429;-76
2022/04/12 11:33:11;;;;;;;3.50;2.70;;;;;;;-143.37;100.00;62585.38;5037295;28;20444;-76
2022/04/12 11:35:47;;;;;;;4.83;3.30;;;;;;;-143.37;100.00;62585.38;5054222;28;20433;-76
2022/04/12 11:38:24;;;;;;;3.70;2.70;;;;;;;-143.37;100.00;62585.38;5070572;28;20532;-76
2022/04/12 11:41:01;;;;;;;3.70;3.30;;;;;;;-143.37;100.00;62585.38;5068575;28;20526;-76
2022/04/12 11:43:37;;;;;;;3.10;2.60;;;;;;;-143.37;100.00;62585.38;5052332;28;20500;-76
2022/04/12 11:46:17;;;;;;;3.00;2.70;;;;;;;-143.37;100.00;62585.38;5052608;28;20461;-76
2022/04/12 11:49:04;;;;;;;3.10;2.40;;;;;;;-143.37;100.00;62585.38;5031455;28;20545;-76
2022/04/12 11:51:43;;;;;;;5.10;3.13;;;;;;;-143.37;100.00;62585.38;5027763;28;20450;-76
2022/04/12 11:54:27;;;;;;;3.70;2.90;;;;;;;-143.37;100.00;62585.38;5063633;28;20461;-76
2022/04/12 11:57:05;;;;;;;5.10;2.87;;;;;;;-143.37;100.00;62585.38;5061069;28;20541;-77